Time;durP1;ratioP1;P1;durP2;ratioP2;P2;SDS_P1;SDS_P2;PMS_P1;PMS_P2;Temp;Humidity;BMP_temperature;BMP_pressure;BME280_temperature;BME280_humidity;BME280_pressure;Samples;Min_cycle;Max_cycle;Signal;HPM_P1;HPM_P2
2023/01/10 00:01:41;;;;;;;24.00;16.40;;;;;;;6.37;79.64;96106.44;108816;1252;101356;-72
2023/01/10 00:04:10;;;;;;;24.40;17.20;;;;;;;6.36;79.75;96109.98;108535;1253;99594;-72
2023/01/10 00:06:38;;;;;;;23.10;16.70;;;;;;;6.34;79.67;96108.52;108775;1254;94273;-71
2023/01/10 00:09:07;;;;;;;23.00;16.80;;;;;;;6.32;79.68;96108.92;108807;1253;94595;-72
2023/01/10 00:14:21;;;;;;;25.80;16.30;;;;;;;6.28;79.76;96105.38;108780;1254;100248;-72
2023/01/10 00:16:49;;;;;;;24.90;17.10;;;;;;;6.27;79.74;96105.30;108736;1253;99855;-72
2023/01/10 00:19:17;;;;;;;25.40;17.90;;;;;;;6.26;79.90;96108.74;108750;1254;94301;-73
2023/01/10 00:21:46;;;;;;;26.20;17.80;;;;;;;6.22;80.05;96110.90;108646;1253;94652;-73
2023/01/10 00:24:17;;;;;;;26.50;17.00;;;;;;;6.16;79.97;96110.77;108804;1254;101266;-72
2023/01/10 00:26:50;;;;;;;31.60;19.20;;;;;;;6.12;80.07;96112.89;108596;1253;100572;-74
2023/01/10 00:29:21;;;;;;;27.00;17.70;;;;;;;6.10;80.06;96116.52;108481;1253;99940;-72
2023/01/10 00:31:49;;;;;;;24.00;16.70;;;;;;;6.09;80.05;96119.00;108788;1254;94303;-73
2023/01/10 00:34:18;;;;;;;23.00;15.20;;;;;;;6.05;80.28;96120.14;108768;1253;94726;-73
2023/01/10 00:36:47;;;;;;;21.30;15.10;;;;;;;5.99;80.44;96120.52;108830;1252;101778;-74
2023/01/10 00:39:18;;;;;;;23.00;15.90;;;;;;;5.97;80.53;96126.15;108803;1254;101360;-73
2023/01/10 00:44:32;;;;;;;22.70;14.90;;;;;;;5.84;80.78;96135.30;108722;1254;94249;-74
2023/01/10 00:47:00;;;;;;;20.70;15.10;;;;;;;5.77;80.89;96136.98;108822;1254;94568;-73
2023/01/10 00:49:29;;;;;;;24.10;15.70;;;;;;;5.75;80.96;96138.50;108759;1254;102097;-74
2023/01/10 00:51:58;;;;;;;24.00;15.10;;;;;;;5.75;81.06;96139.04;108797;1254;101304;-73
2023/01/10 00:54:26;;;;;;;21.20;14.20;;;;;;;5.76;81.03;96142.86;108775;1253;100446;-74
2023/01/10 00:56:55;;;;;;;16.20;11.50;;;;;;;5.77;81.02;96145.83;108666;1253;94633;-72
2023/01/10 00:59:24;;;;;;;16.80;10.60;;;;;;;5.78;80.92;96145.33;108778;1254;94462;-73
2023/01/10 01:01:52;;;;;;;15.30;9.60;;;;;;;5.80;80.84;96149.98;108846;1251;101999;-74
2023/01/10 01:04:20;;;;;;;8.50;6.40;;;;;;;5.80;80.69;96151.21;108822;1251;100306;-72
2023/01/10 01:06:49;;;;;;;9.40;5.90;;;;;;;5.76;80.63;96151.31;108750;1251;99096;-72
2023/01/10 01:09:17;;;;;;;9.90;6.60;;;;;;;5.74;80.51;96153.41;108759;1251;94322;-73
2023/01/10 01:11:45;;;;;;;13.70;7.50;;;;;;;5.73;80.52;96154.82;108756;1252;94584;-72
2023/01/10 01:14:14;;;;;;;8.90;5.90;;;;;;;5.70;80.50;96156.31;108835;1251;102482;-73
2023/01/10 01:16:42;;;;;;;9.30;5.80;;;;;;;5.61;80.22;96157.45;108812;1251;101212;-73
2023/01/10 01:19:11;;;;;;;7.40;4.70;;;;;;;5.55;80.09;96161.42;108807;1251;108470;-73
2023/01/10 01:21:39;;;;;;;6.30;5.00;;;;;;;5.47;79.85;96164.27;108718;1252;94221;-73
2023/01/10 01:24:10;;;;;;;8.20;5.60;;;;;;;5.41;79.93;96164.38;108826;1251;95203;-72
2023/01/10 01:26:38;;;;;;;8.70;5.30;;;;;;;5.38;80.04;96167.97;108629;1251;101948;-73
2023/01/10 01:29:06;;;;;;;8.20;6.00;;;;;;;5.37;80.15;96171.30;108622;1253;101040;-72
2023/01/10 01:31:34;;;;;;;10.00;6.20;;;;;;;5.40;80.17;96171.66;108838;1251;99601;-74
2023/01/10 01:34:02;;;;;;;10.50;6.30;;;;;;;5.42;80.23;96169.95;108785;1251;94216;-74
2023/01/10 01:36:30;;;;;;;9.00;6.20;;;;;;;5.43;80.21;96171.04;108867;1251;94626;-73
2023/01/10 01:38:58;;;;;;;8.30;6.40;;;;;;;5.46;80.26;96178.56;108846;1251;101106;-72
2023/01/10 01:44:17;;;;;;;13.10;8.00;;;;;;;5.43;80.30;96179.81;108799;1251;99836;-73
2023/01/10 01:46:59;;;;;;;12.80;8.00;;;;;;;5.40;80.31;96182.70;108854;1251;94506;-74
2023/01/10 01:49:30;;;;;;;13.80;8.00;;;;;;;5.35;80.24;96181.42;108789;1251;94248;-73
2023/01/10 01:52:06;;;;;;;10.80;7.50;;;;;;;5.32;80.39;96174.71;108802;1251;102335;-75
2023/01/10 01:54:35;;;;;;;8.00;5.70;;;;;;;5.29;80.29;96171.57;108880;1251;101477;-72
2023/01/10 01:57:14;;;;;;;8.10;6.00;;;;;;;5.22;80.17;96171.94;108813;1251;99942;-72
2023/01/10 01:59:49;;;;;;;8.60;5.30;;;;;;;5.14;80.20;96174.67;108551;1253;94394;-73
2023/01/10 02:02:21;;;;;;;8.10;5.10;;;;;;;5.10;80.41;96179.84;108786;1251;94225;-73
2023/01/10 02:05:03;;;;;;;7.00;5.10;;;;;;;5.08;80.35;96181.52;108832;1251;102108;-73
2023/01/10 02:07:36;;;;;;;;;;;;;;;5.07;80.41;96182.25;108825;1251;101393;-72
2023/01/10 02:10:15;;;;;;;7.30;4.60;;;;;;;5.02;80.34;96180.60;108807;1251;99824;-73
2023/01/10 02:12:46;;;;;;;5.60;4.30;;;;;;;5.01;80.47;96181.71;108811;1251;94208;-74
2023/01/10 02:15:16;;;;;;;5.70;4.20;;;;;;;4.97;80.41;96179.98;108642;1253;95257;-73
2023/01/10 02:17:48;;;;;;;5.00;4.10;;;;;;;4.97;80.41;96178.66;108786;1251;101711;-73
2023/01/10 02:20:19;;;;;;;6.00;4.70;;;;;;;4.99;80.42;96182.74;108877;1251;101557;-73
2023/01/10 02:22:56;;;;;;;4.90;4.00;;;;;;;4.99;80.41;96187.75;108810;1251;100152;-73
2023/01/10 02:25:39;;;;;;;5.30;3.80;;;;;;;4.94;80.32;96189.91;108760;1251;94176;-74
2023/01/10 02:28:25;;;;;;;4.30;3.40;;;;;;;4.90;80.54;96193.44;108825;1251;95101;-73
2023/01/10 02:31:11;;;;;;;8.00;4.10;;;;;;;4.88;80.64;96194.13;108841;1251;102213;-73
2023/01/10 02:33:52;;;;;;;7.10;5.00;;;;;;;4.89;80.73;96193.52;108821;1251;101526;-73
2023/01/10 02:36:40;;;;;;;6.40;3.60;;;;;;;4.87;80.93;96197.50;108750;1251;99944;-73
2023/01/10 02:39:24;;;;;;;5.90;4.40;;;;;;;4.81;80.77;96203.59;108699;1251;94712;-74
2023/01/10 02:42:14;;;;;;;4.80;3.50;;;;;;;4.78;80.92;96205.69;108833;1251;94686;-73
2023/01/10 02:44:51;;;;;;;5.40;3.80;;;;;;;4.75;80.93;96207.58;108669;1251;102347;-75
2023/01/10 02:47:19;;;;;;;4.60;2.90;;;;;;;4.75;80.84;96215.91;108839;1251;101534;-72
2023/01/10 02:49:49;;;;;;;4.70;3.00;;;;;;;4.73;80.64;96216.61;108783;1251;108477;-73
2023/01/10 02:52:28;;;;;;;7.20;3.50;;;;;;;4.75;80.80;96220.52;108815;1251;94322;-73
2023/01/10 02:55:01;;;;;;;5.10;3.80;;;;;;;4.72;80.78;96225.05;108840;1251;94478;-72
2023/01/10 02:57:41;;;;;;;6.20;4.00;;;;;;;4.70;80.81;96224.16;108819;1251;102355;-73
2023/01/10 03:00:10;;;;;;;4.70;3.50;;;;;;;4.70;80.91;96228.05;108668;1251;100538;-73
2023/01/10 03:03:16;;;;;;;5.80;4.00;;;;;;;4.64;80.72;96232.40;108789;1251;100018;-72
2023/01/10 03:05:44;;;;;;;5.20;3.80;;;;;;;4.63;80.73;96240.05;108415;1257;94309;-73
2023/01/10 03:08:25;;;;;;;4.80;3.40;;;;;;;4.61;80.81;96244.05;108495;1256;94700;-72
2023/01/10 03:11:02;;;;;;;6.70;4.30;;;;;;;4.61;80.83;96246.90;108454;1256;101829;-73
2023/01/10 03:13:53;;;;;;;7.40;4.50;;;;;;;4.63;80.89;96243.54;108511;1256;102001;-74
2023/01/10 03:16:27;;;;;;;7.90;4.80;;;;;;;4.66;80.84;96247.08;108457;1256;100020;-74
2023/01/10 03:19:00;;;;;;;6.90;4.60;;;;;;;4.68;81.04;96249.32;108219;1257;94222;-72
2023/01/10 03:21:31;;;;;;;6.60;4.20;;;;;;;4.69;80.91;96252.94;108505;1256;94244;-74
2023/01/10 03:24:06;;;;;;;5.00;3.30;;;;;;;4.67;80.99;96254.75;108444;1256;102432;-72
2023/01/10 03:26:47;;;;;;;5.70;3.60;;;;;;;4.62;80.79;96261.17;108487;1256;101573;-73
2023/01/10 03:29:22;;;;;;;6.00;4.00;;;;;;;4.56;80.79;96265.94;108434;1256;98924;-74
2023/01/10 03:31:54;;;;;;;4.30;2.90;;;;;;;4.55;80.86;96272.10;108504;1256;94456;-72
2023/01/10 03:34:24;;;;;;;3.90;3.10;;;;;;;4.49;80.79;96276.80;108475;1256;94585;-72
2023/01/10 03:37:18;;;;;;;4.50;3.40;;;;;;;4.48;80.77;96286.20;108477;1256;102202;-74
2023/01/10 03:40:04;;;;;;;5.60;3.70;;;;;;;4.50;80.93;96287.41;108304;1256;101625;-74
2023/01/10 03:46:13;;;;;;;6.90;3.60;;;;;;;4.59;81.03;96294.23;108326;1258;94694;-74
2023/01/10 03:48:45;;;;;;;4.90;3.30;;;;;;;4.56;80.97;96295.79;108327;1258;94707;-73
2023/01/10 03:51:14;;;;;;;4.80;3.30;;;;;;;4.57;80.90;96299.58;108338;1259;102278;-74
2023/01/10 03:53:43;;;;;;;3.70;3.30;;;;;;;4.55;80.91;96303.60;108380;1259;100120;-73
2023/01/10 03:56:15;;;;;;;5.60;3.40;;;;;;;4.51;80.91;96301.44;108116;1258;98970;-74
2023/01/10 03:58:43;;;;;;;6.10;3.60;;;;;;;4.52;80.94;96303.09;108275;1258;94578;-73
2023/01/10 04:01:11;;;;;;;6.20;3.40;;;;;;;4.50;81.00;96302.16;108302;1259;95693;-73
2023/01/10 04:03:39;;;;;;;3.10;2.20;;;;;;;4.42;80.91;96302.64;108148;1259;102426;-74
2023/01/10 04:06:07;;;;;;;4.10;2.60;;;;;;;4.32;80.75;96304.90;108321;1259;101444;-72
2023/01/10 04:08:36;;;;;;;5.40;2.90;;;;;;;4.31;80.84;96308.80;108283;1258;99894;-73
2023/01/10 04:11:04;;;;;;;5.00;2.50;;;;;;;4.31;80.80;96313.33;108269;1258;94277;-73
2023/01/10 04:13:32;;;;;;;2.70;2.00;;;;;;;4.26;80.79;96315.60;108151;1258;94651;-74
2023/01/10 04:16:00;;;;;;;2.30;2.10;;;;;;;4.18;80.76;96316.35;108124;1260;102121;-73
2023/01/10 04:18:29;;;;;;;2.50;1.80;;;;;;;4.14;80.68;96317.42;108311;1259;101045;-73
2023/01/10 04:20:57;;;;;;;2.20;1.80;;;;;;;4.15;80.87;96315.90;108280;1259;99881;-74
2023/01/10 04:23:25;;;;;;;2.40;1.80;;;;;;;4.17;80.96;96319.30;108716;1251;94721;-73
2023/01/10 04:25:53;;;;;;;2.80;1.40;;;;;;;4.17;80.82;96322.74;108684;1251;94776;-73
2023/01/10 04:28:21;;;;;;;2.30;1.70;;;;;;;4.15;80.85;96326.55;108687;1251;102287;-73
2023/01/10 04:30:49;;;;;;;3.10;1.70;;;;;;;4.15;80.71;96325.48;108853;1251;101241;-73
2023/01/10 04:33:17;;;;;;;1.60;1.40;;;;;;;4.18;80.91;96329.52;108737;1251;100148;-73
2023/01/10 04:35:49;;;;;;;2.50;1.70;;;;;;;4.21;81.00;96331.48;108781;1251;94457;-74
2023/01/10 04:38:18;;;;;;;;;;;;;;;4.20;80.95;96335.30;108846;1251;95305;-73
2023/01/10 04:40:53;;;;;;;3.00;1.40;;;;;;;4.21;81.08;96338.77;108846;1251;102201;-73
2023/01/10 04:43:22;;;;;;;2.60;1.90;;;;;;;4.23;81.09;96344.02;108723;1251;100610;-73
2023/01/10 04:45:51;;;;;;;3.00;2.50;;;;;;;4.23;80.99;96347.02;108813;1251;99834;-73
2023/01/10 04:48:19;;;;;;;2.40;2.00;;;;;;;4.25;81.04;96353.55;108655;1251;94498;-74
2023/01/10 04:50:51;;;;;;;2.20;1.90;;;;;;;4.26;81.04;96357.14;108835;1251;94579;-72
2023/01/10 04:53:20;;;;;;;3.00;2.00;;;;;;;4.26;80.97;96376.02;108894;1251;101383;-74
2023/01/10 04:55:49;;;;;;;3.60;2.50;;;;;;;4.27;80.94;96388.84;108816;1251;101441;-74
2023/01/10 04:58:17;;;;;;;3.80;2.70;;;;;;;4.28;80.76;96396.70;108796;1251;99632;-73
2023/01/10 05:00:46;;;;;;;3.30;2.50;;;;;;;4.27;80.75;96400.59;108404;1251;94655;-74
2023/01/10 05:03:19;;;;;;;3.60;2.50;;;;;;;4.25;80.87;96394.29;108832;1251;94690;-74
2023/01/10 05:05:47;;;;;;;5.00;3.00;;;;;;;4.23;80.89;96393.10;108807;1251;102315;-73
2023/01/10 05:08:15;;;;;;;3.70;3.10;;;;;;;4.18;80.99;96394.09;108820;1251;101341;-73
2023/01/10 05:10:43;;;;;;;4.70;3.40;;;;;;;4.17;80.99;96400.16;108770;1251;99821;-74
2023/01/10 05:13:12;;;;;;;5.80;4.10;;;;;;;4.16;80.98;96407.42;108792;1251;94215;-73
2023/01/10 05:15:40;;;;;;;5.30;3.80;;;;;;;4.17;81.08;96418.33;108864;1251;94597;-73
2023/01/10 05:18:08;;;;;;;7.50;6.30;;;;;;;4.17;81.03;96421.73;108870;1251;101900;-73
2023/01/10 05:20:37;;;;;;;6.40;5.80;;;;;;;4.19;80.99;96427.84;108835;1252;101349;-74
2023/01/10 05:23:05;;;;;;;6.70;5.80;;;;;;;4.21;81.07;96428.35;108823;1251;99842;-74
2023/01/10 05:25:33;;;;;;;8.10;6.10;;;;;;;4.24;81.07;96435.95;108791;1251;94165;-75
2023/01/10 05:28:02;;;;;;;7.40;5.30;;;;;;;4.25;80.97;96441.10;108784;1251;94667;-74
2023/01/10 05:30:30;;;;;;;7.50;5.30;;;;;;;4.28;80.94;96444.37;108813;1251;102223;-73
2023/01/10 05:32:58;;;;;;;7.60;6.10;;;;;;;4.31;81.05;96445.91;108855;1250;101259;-73
2023/01/10 05:35:26;;;;;;;7.40;5.30;;;;;;;4.33;81.01;96449.47;108761;1251;99952;-73
2023/01/10 05:37:55;;;;;;;5.40;4.40;;;;;;;4.34;80.92;96451.65;108653;1253;94306;-73
2023/01/10 05:40:23;;;;;;;4.90;3.90;;;;;;;4.35;80.71;96454.73;108854;1251;94514;-73
2023/01/10 05:42:51;;;;;;;5.40;3.40;;;;;;;4.33;80.51;96454.29;108907;1251;101711;-74
2023/01/10 05:45:19;;;;;;;6.20;4.20;;;;;;;4.33;80.49;96457.25;108885;1251;101376;-73
2023/01/10 05:47:48;;;;;;;5.20;3.90;;;;;;;4.33;80.48;96462.59;108801;1251;99925;-73
2023/01/10 05:50:16;;;;;;;4.70;3.20;;;;;;;4.32;80.47;96467.77;108825;1251;94184;-73
2023/01/10 05:52:45;;;;;;;11.20;10.10;;;;;;;4.30;80.32;96473.85;108708;1251;94667;-72
2023/01/10 05:55:13;;;;;;;16.80;15.10;;;;;;;4.30;80.43;96480.02;108816;1251;102439;-73
2023/01/10 05:57:41;;;;;;;14.40;12.90;;;;;;;4.32;80.47;96481.98;108837;1251;101627;-73
2023/01/10 06:00:10;;;;;;;13.70;12.30;;;;;;;4.32;80.55;96485.55;108818;1251;99883;-73
2023/01/10 06:02:38;;;;;;;15.90;13.90;;;;;;;4.32;80.64;96493.48;108795;1251;94399;-72
2023/01/10 06:05:06;;;;;;;15.40;13.80;;;;;;;4.34;80.50;96491.16;108841;1251;94496;-73
2023/01/10 06:07:34;;;;;;;19.90;17.90;;;;;;;4.35;80.47;96496.98;108488;1251;101176;-73
2023/01/10 06:10:03;;;;;;;20.00;18.10;;;;;;;4.35;80.39;96506.48;108857;1251;100253;-73
2023/01/10 06:12:31;;;;;;;16.00;14.40;;;;;;;4.33;80.39;96509.89;108833;1251;100410;-73
2023/01/10 06:14:59;;;;;;;18.90;17.10;;;;;;;4.31;80.40;96517.31;108820;1251;94202;-73
2023/01/10 06:17:28;;;;;;;18.40;16.60;;;;;;;4.30;80.37;96521.30;108741;1251;95252;-73
2023/01/10 06:19:56;;;;;;;13.20;11.70;;;;;;;4.26;80.29;96523.50;108799;1250;102409;-73
2023/01/10 06:22:25;;;;;;;6.80;6.00;;;;;;;4.19;80.31;96523.88;108692;1251;101581;-74
2023/01/10 06:24:53;;;;;;;14.80;13.20;;;;;;;4.11;80.31;96525.65;108830;1251;99617;-73
2023/01/10 06:27:21;;;;;;;45.10;38.30;;;;;;;4.09;80.43;96529.42;108809;1251;94208;-73
2023/01/10 06:29:49;;;;;;;30.00;26.20;;;;;;;4.11;80.50;96531.11;108734;1252;94772;-72
2023/01/10 06:32:18;;;;;;;19.40;14.90;;;;;;;4.13;80.46;96531.23;108823;1251;102275;-73
2023/01/10 06:34:46;;;;;;;20.20;18.20;;;;;;;4.09;80.49;96532.66;108867;1251;101494;-73
2023/01/10 06:37:14;;;;;;;17.50;15.70;;;;;;;4.07;80.44;96535.20;108827;1251;99752;-73
2023/01/10 06:39:42;;;;;;;8.70;7.90;;;;;;;4.06;80.38;96534.86;108800;1251;94286;-73
2023/01/10 06:42:10;;;;;;;5.20;4.40;;;;;;;4.05;80.32;96536.36;108853;1251;94348;-73
2023/01/10 06:44:38;;;;;;;3.40;2.90;;;;;;;4.01;80.30;96535.38;108883;1251;102316;-74
2023/01/10 06:47:06;;;;;;;3.80;2.50;;;;;;;3.94;80.23;96537.58;108827;1251;101237;-73
2023/01/10 06:49:34;;;;;;;3.40;2.70;;;;;;;3.91;80.24;96546.00;108658;1251;99723;-73
2023/01/10 06:52:03;;;;;;;2.80;2.40;;;;;;;3.91;80.38;96551.95;108795;1251;94210;-74
2023/01/10 06:54:31;;;;;;;5.40;4.90;;;;;;;3.91;80.30;96558.70;108838;1251;94665;-72
2023/01/10 06:56:59;;;;;;;5.60;4.10;;;;;;;3.92;80.41;96569.59;108800;1251;102077;-73
2023/01/10 06:59:27;;;;;;;2.90;2.50;;;;;;;3.91;80.35;96578.70;108872;1251;109813;-72
2023/01/10 07:01:55;;;;;;;5.40;3.00;;;;;;;3.90;80.27;96588.64;108812;1251;99948;-73
2023/01/10 07:04:23;;;;;;;3.90;2.70;;;;;;;3.90;80.20;96593.19;108798;1251;94218;-74
2023/01/10 07:06:51;;;;;;;4.50;2.90;;;;;;;3.87;80.13;96587.95;108750;1251;95125;-72
2023/01/10 07:09:19;;;;;;;4.30;2.60;;;;;;;3.82;80.07;96579.36;108804;1251;110803;-72
2023/01/10 07:11:48;;;;;;;5.10;2.90;;;;;;;3.77;80.15;96578.10;108812;1251;101238;-73
2023/01/10 07:14:16;;;;;;;3.80;2.40;;;;;;;3.72;80.31;96581.15;108809;1251;99907;-72
2023/01/10 07:16:44;;;;;;;4.80;2.60;;;;;;;3.71;80.37;96581.66;108853;1251;94190;-73
2023/01/10 07:19:13;;;;;;;6.30;3.10;;;;;;;3.71;80.28;96589.13;108804;1251;95242;-73
2023/01/10 07:21:41;;;;;;;6.00;3.60;;;;;;;3.71;80.32;96591.84;108875;1251;101912;-73
2023/01/10 07:24:10;;;;;;;4.40;3.10;;;;;;;3.72;80.42;96587.05;108841;1251;101279;-73
2023/01/10 07:26:38;;;;;;;4.80;2.80;;;;;;;3.73;80.41;96589.52;108817;1251;100134;-73
2023/01/10 07:29:06;;;;;;;5.10;2.90;;;;;;;3.74;80.38;96597.05;108793;1251;94278;-73
2023/01/10 07:31:34;;;;;;;4.20;2.70;;;;;;;3.74;80.32;96603.75;108884;1251;94576;-73
2023/01/10 07:34:02;;;;;;;3.60;2.80;;;;;;;3.72;80.27;96611.54;108869;1251;101717;-73
2023/01/10 07:36:30;;;;;;;4.50;3.10;;;;;;;3.70;80.19;96613.66;108834;1251;100985;-73
2023/01/10 07:38:58;;;;;;;6.90;4.00;;;;;;;3.69;80.31;96610.91;108865;1251;99662;-73
2023/01/10 07:41:27;;;;;;;4.30;3.00;;;;;;;3.69;80.23;96609.84;108458;1253;94264;-73
2023/01/10 07:43:55;;;;;;;3.90;3.00;;;;;;;3.69;80.27;96619.98;108848;1251;94364;-72
2023/01/10 07:46:23;;;;;;;5.40;3.20;;;;;;;3.67;80.12;96630.48;108770;1252;101245;-72
2023/01/10 07:48:51;;;;;;;5.30;2.70;;;;;;;3.66;80.07;96633.86;108706;1251;100031;-72
2023/01/10 07:51:19;;;;;;;5.10;3.10;;;;;;;3.63;80.11;96639.94;108832;1251;99491;-72
2023/01/10 07:53:47;;;;;;;7.30;4.30;;;;;;;3.60;80.15;96645.39;108842;1251;94174;-74
2023/01/10 07:56:16;;;;;;;8.60;5.30;;;;;;;3.59;80.08;96648.57;108481;1253;94715;-72
2023/01/10 07:58:45;;;;;;;6.20;4.30;;;;;;;3.59;80.02;96649.55;108860;1251;102129;-73
2023/01/10 08:01:13;;;;;;;6.70;3.60;;;;;;;3.58;79.93;96649.12;108821;1251;101367;-74
2023/01/10 08:03:41;;;;;;;7.50;3.90;;;;;;;3.58;80.09;96652.62;108802;1251;99875;-73
2023/01/10 08:06:10;;;;;;;5.00;3.30;;;;;;;3.58;80.25;96652.11;108806;1251;94367;-73
2023/01/10 08:08:38;;;;;;;6.60;4.50;;;;;;;3.54;80.00;96654.92;108838;1251;94659;-73
2023/01/10 08:11:07;;;;;;;4.40;3.70;;;;;;;3.52;79.98;96656.05;108780;1251;101832;-74
2023/01/10 08:13:35;;;;;;;6.30;3.80;;;;;;;3.49;79.93;96653.70;108773;1252;101052;-73
2023/01/10 08:16:07;;;;;;;7.00;3.90;;;;;;;3.50;80.04;96662.56;108664;1251;99779;-73
2023/01/10 08:18:37;;;;;;;7.00;4.40;;;;;;;3.47;80.07;96668.40;108771;1251;94224;-72
2023/01/10 08:21:06;;;;;;;16.20;9.70;;;;;;;3.37;79.78;96674.65;108798;1253;94542;-72
2023/01/10 08:23:34;;;;;;;37.10;23.60;;;;;;;3.22;79.82;96681.10;108887;1251;102087;-73
2023/01/10 08:26:02;;;;;;;10.90;6.70;;;;;;;3.14;79.99;96686.40;108799;1252;101058;-73
2023/01/10 08:28:30;;;;;;;6.10;5.00;;;;;;;3.13;80.13;96691.84;108758;1251;99933;-72
2023/01/10 08:30:59;;;;;;;4.30;3.60;;;;;;;3.12;80.19;96700.83;108768;1252;94244;-72
2023/01/10 08:33:27;;;;;;;5.70;4.00;;;;;;;3.10;80.24;96711.04;108852;1252;94763;-73
2023/01/10 08:35:55;;;;;;;5.00;4.00;;;;;;;3.10;80.24;96719.04;108819;1252;101833;-73
2023/01/10 08:38:23;;;;;;;5.20;3.60;;;;;;;3.11;80.22;96725.87;108841;1252;100325;-72
2023/01/10 08:40:51;;;;;;;6.70;3.80;;;;;;;3.12;80.31;96726.99;108550;1254;100006;-72
2023/01/10 08:43:20;;;;;;;6.20;4.10;;;;;;;3.13;80.32;96729.14;108393;1255;94301;-72
2023/01/10 08:45:49;;;;;;;7.30;5.80;;;;;;;3.11;80.36;96730.33;108243;1256;94604;-73
2023/01/10 08:48:17;;;;;;;5.60;3.90;;;;;;;3.08;80.26;96732.65;108596;1256;102343;-73
2023/01/10 08:50:45;;;;;;;8.20;4.60;;;;;;;3.02;80.17;96730.54;108563;1254;101329;-72
2023/01/10 08:53:14;;;;;;;8.00;4.80;;;;;;;2.91;80.16;96738.05;108363;1255;99887;-72
2023/01/10 08:55:42;;;;;;;6.40;4.90;;;;;;;2.87;80.24;96734.55;108268;1256;94352;-72
2023/01/10 08:58:10;;;;;;;6.60;4.40;;;;;;;2.89;80.34;96733.30;108567;1255;94943;-73
2023/01/10 09:00:39;;;;;;;6.80;4.70;;;;;;;2.88;80.40;96733.41;108554;1255;102314;-72
2023/01/10 09:03:07;;;;;;;6.50;4.90;;;;;;;2.88;80.53;96742.52;108568;1255;102171;-73
2023/01/10 09:05:35;;;;;;;5.70;4.50;;;;;;;2.90;80.52;96754.88;108509;1256;99570;-73
2023/01/10 09:08:04;;;;;;;7.20;4.20;;;;;;;2.91;80.58;96760.55;108478;1256;94716;-73
2023/01/10 09:10:33;;;;;;;5.00;4.00;;;;;;;2.93;80.41;96759.88;108466;1256;94597;-73
2023/01/10 09:13:01;;;;;;;7.70;4.50;;;;;;;2.90;80.35;96755.73;108806;1251;102367;-73
2023/01/10 09:15:33;;;;;;;6.90;4.80;;;;;;;2.84;80.36;96761.79;108846;1251;101267;-72
2023/01/10 09:18:03;;;;;;;8.20;4.60;;;;;;;2.72;80.35;96769.73;108860;1251;99598;-73
2023/01/10 09:20:34;;;;;;;8.90;4.50;;;;;;;2.66;80.33;96774.49;108834;1251;94305;-73
2023/01/10 09:23:11;;;;;;;11.40;6.10;;;;;;;2.64;80.63;96778.40;108872;1251;94620;-73
2023/01/10 09:25:39;;;;;;;13.10;6.80;;;;;;;2.52;80.55;96785.56;108826;1251;102725;-73
2023/01/10 09:28:07;;;;;;;13.10;7.00;;;;;;;2.43;80.50;96784.52;108857;1251;101290;-74
2023/01/10 09:30:35;;;;;;;9.50;5.40;;;;;;;2.42;80.72;96784.21;108797;1251;99934;-72
2023/01/10 09:33:04;;;;;;;7.50;4.80;;;;;;;2.43;80.64;96790.11;108724;1251;94237;-72
2023/01/10 09:35:35;;;;;;;7.60;4.80;;;;;;;2.45;80.83;96796.83;108660;1255;94543;-72
2023/01/10 09:38:05;;;;;;;11.00;6.50;;;;;;;2.50;80.81;96805.33;108937;1251;102264;-72
2023/01/10 09:41:07;;;;;;;10.40;7.00;;;;;;;2.52;80.79;96810.91;108851;1251;101195;-72
2023/01/10 09:43:51;;;;;;;9.60;7.00;;;;;;;2.53;80.68;96808.35;108832;1251;98913;-72
2023/01/10 09:47:13;;;;;;;9.80;6.30;;;;;;;2.54;80.70;96807.70;108815;1251;94249;-74
2023/01/10 09:49:56;;;;;;;12.10;7.60;;;;;;;2.54;80.64;96809.79;108350;1257;94560;-74
2023/01/10 09:52:31;;;;;;;20.90;14.10;;;;;;;2.57;80.64;96815.27;108349;1258;101929;-74
2023/01/10 09:55:04;;;;;;;34.70;20.90;;;;;;;2.58;80.61;96817.39;108317;1258;101334;-74
2023/01/10 09:57:32;;;;;;;37.90;24.40;;;;;;;2.58;80.53;96824.02;108283;1257;99307;-74
2023/01/10 10:00:01;;;;;;;51.20;35.90;;;;;;;2.57;80.44;96830.48;108302;1258;94317;-74
2023/01/10 10:02:35;;;;;;;34.90;24.10;;;;;;;2.49;80.19;96838.05;108245;1257;94877;-74
2023/01/10 10:05:06;;;;;;;31.70;18.60;;;;;;;2.46;80.28;96840.38;108301;1257;101779;-74
2023/01/10 10:07:34;;;;;;;20.80;13.50;;;;;;;2.46;80.32;96841.47;108327;1258;101751;-74
2023/01/10 10:10:14;;;;;;;20.50;13.30;;;;;;;2.47;80.21;96844.23;108206;1257;99932;-76
2023/01/10 10:13:00;;;;;;;18.80;11.10;;;;;;;2.47;80.16;96845.10;108316;1257;94644;-74
2023/01/10 10:15:52;;;;;;;15.10;10.90;;;;;;;2.39;80.09;96844.05;108329;1257;94570;-74
2023/01/10 10:18:52;;;;;;;16.30;9.00;;;;;;;2.35;80.03;96842.44;108310;1258;102320;-75
2023/01/10 10:21:43;;;;;;;15.50;9.60;;;;;;;2.35;80.19;96844.83;108234;1258;100545;-74
2023/01/10 10:24:29;;;;;;;11.70;9.70;;;;;;;2.39;80.19;96847.59;108117;1257;100456;-75
2023/01/10 10:27:36;;;;;;;13.40;10.40;;;;;;;2.43;80.16;96850.35;108200;1257;94242;-74
2023/01/10 10:30:26;;;;;;;12.80;9.80;;;;;;;2.44;80.01;96853.56;107930;1265;94731;-75
2023/01/10 10:33:06;;;;;;;13.00;9.50;;;;;;;2.43;79.90;96857.77;107707;1265;103484;-75
2023/01/10 10:35:41;;;;;;;13.40;9.30;;;;;;;2.38;79.92;96863.52;107769;1265;101353;-74
2023/01/10 10:38:24;;;;;;;14.70;9.90;;;;;;;2.30;79.79;96867.65;107846;1265;100041;-76
2023/01/10 10:40:53;;;;;;;;;;;;;;;2.29;79.95;96869.07;107899;1265;94842;-75
2023/01/10 10:43:26;;;;;;;16.10;11.00;;;;;;;2.29;80.05;96870.67;107915;1265;94320;-74
2023/01/10 10:46:01;;;;;;;15.50;11.10;;;;;;;2.31;80.05;96874.44;107926;1265;101882;-74
2023/01/10 10:48:32;;;;;;;20.60;15.20;;;;;;;2.31;79.90;96880.26;107900;1265;100850;-76
2023/01/10 10:51:30;;;;;;;16.70;10.50;;;;;;;2.29;79.86;96878.66;107897;1265;100137;-76
2023/01/10 10:54:00;;;;;;;20.60;14.10;;;;;;;2.25;79.91;96875.18;107240;1273;94332;-76
2023/01/10 10:56:28;;;;;;;23.40;14.50;;;;;;;2.25;79.96;96876.90;107221;1273;94795;-75
2023/01/10 10:58:59;;;;;;;22.10;14.00;;;;;;;2.26;80.01;96877.14;107308;1272;102419;-75
2023/01/10 11:01:27;;;;;;;20.80;14.20;;;;;;;2.23;79.82;96880.20;107400;1267;101355;-75
2023/01/10 11:04:00;;;;;;;22.60;13.80;;;;;;;2.21;79.88;96888.23;107804;1267;99936;-75
2023/01/10 11:06:31;;;;;;;20.30;14.40;;;;;;;2.22;79.95;96893.26;107770;1267;94290;-76
2023/01/10 11:09:03;;;;;;;18.10;13.10;;;;;;;2.23;80.01;96898.30;108088;1259;95027;-75
2023/01/10 11:11:37;;;;;;;;;;;;;;;2.24;80.03;96906.87;108315;1259;101934;-75
2023/01/10 11:14:09;;;;;;;17.50;12.30;;;;;;;2.23;80.08;96910.16;108258;1259;101290;-75
2023/01/10 11:16:40;;;;;;;20.70;11.90;;;;;;;2.23;80.06;96912.89;108238;1259;98630;-75
2023/01/10 11:19:21;;;;;;;21.60;14.40;;;;;;;2.22;79.96;96916.81;108208;1259;94281;-76
2023/01/10 11:21:57;;;;;;;24.70;15.60;;;;;;;2.19;79.97;96927.63;107992;1259;95303;-75
2023/01/10 11:24:32;;;;;;;29.60;18.70;;;;;;;2.17;79.92;96937.11;108226;1259;102192;-75
2023/01/10 11:27:16;;;;;;;30.40;20.20;;;;;;;2.16;79.91;96943.57;107893;1259;101043;-75
2023/01/10 11:29:49;;;;;;;31.90;20.50;;;;;;;2.14;79.98;96948.14;108218;1259;98973;-75
2023/01/10 11:32:20;;;;;;;24.70;17.20;;;;;;;2.11;80.10;96950.16;108729;1252;95197;-74
2023/01/10 11:34:57;;;;;;;31.90;20.10;;;;;;;2.10;80.02;96953.73;108813;1251;94581;-76
2023/01/10 11:37:31;;;;;;;25.00;17.70;;;;;;;2.08;80.00;96960.61;108860;1251;102171;-75
2023/01/10 11:40:22;;;;;;;21.30;16.00;;;;;;;2.07;80.02;96959.52;108937;1251;101359;-75
2023/01/10 11:42:54;;;;;;;21.90;15.90;;;;;;;2.06;80.14;96959.45;108764;1252;98454;-76
2023/01/10 11:45:31;;;;;;;23.50;16.90;;;;;;;2.05;80.22;96962.92;108783;1251;94268;-75
2023/01/10 11:48:17;;;;;;;25.50;17.60;;;;;;;2.05;80.22;96970.83;108642;1253;94652;-75
2023/01/10 11:50:50;;;;;;;25.70;18.40;;;;;;;2.03;80.17;96972.42;108859;1251;101855;-76
2023/01/10 11:53:49;;;;;;;26.60;19.10;;;;;;;2.02;80.15;96978.44;108822;1253;110107;-75
2023/01/10 11:56:26;;;;;;;26.30;18.40;;;;;;;2.01;80.23;96983.11;108270;1259;99873;-75
2023/01/10 11:58:55;;;;;;;27.60;18.60;;;;;;;2.02;80.31;96990.63;108125;1259;94704;-76